Terminal Aerodrome Forecast
Issued by NWS Memphis, TN

Home | Current Version | Previous Version | Text Only | Print | Product List | Glossary On
Versions: 1 2 3 4 5 6 7 8 9 10 11 12 13 14 15 16
000
FTUS44 KMEG 011100
TAFMKL
TAF
KMKL 011120Z 0112/0212 00000KT 3SM BR SKC
     FM011500 19005KT P6SM SCT040
     FM020000 00000KT P6SM SKC
     FM020600 16006KT P6SM OVC100=

USA.gov is the U.S. government's official web portal to all federal, state and local government web resources and services.